createdAt,value
2019-04-10T00:07:36.268Z,921.44
2019-04-10T00:08:36.507Z,921.39
2019-04-10T00:09:36.303Z,921.39
2019-04-10T00:10:36.270Z,921.39
2019-04-10T00:11:36.682Z,921.35
2019-04-10T00:12:36.212Z,921.31
2019-04-10T00:13:36.520Z,921.35
2019-04-10T00:14:36.682Z,921.34
2019-04-10T00:15:36.283Z,921.32
2019-04-10T00:16:36.218Z,921.37
2019-04-10T00:17:36.157Z,921.41
2019-04-10T00:18:36.147Z,921.45
2019-04-10T00:19:36.139Z,921.47
2019-04-10T00:20:36.490Z,921.53
2019-04-10T00:21:36.265Z,921.49
2019-04-10T00:22:36.103Z,921.56
2019-04-10T00:23:36.091Z,921.60
2019-04-10T00:24:36.081Z,921.59
2019-04-10T00:25:37.093Z,921.60
2019-04-10T00:26:36.061Z,921.56
2019-04-10T00:27:36.824Z,921.60
2019-04-10T00:28:36.040Z,921.59
2019-04-10T00:29:36.322Z,921.57
2019-04-10T00:30:36.018Z,921.58
2019-04-10T00:31:36.033Z,921.54
2019-04-10T00:32:36.257Z,921.57
2019-04-10T00:33:36.717Z,921.53
2019-04-10T00:34:35.978Z,921.57
2019-04-10T00:35:35.960Z,921.55
2019-04-10T00:36:35.955Z,921.55
2019-04-10T00:37:35.942Z,921.56
2019-04-10T00:38:35.927Z,921.60
2019-04-10T00:39:36.921Z,921.56
2019-04-10T00:40:35.913Z,921.54
2019-04-10T00:41:36.507Z,921.53
2019-04-10T00:42:36.941Z,921.54
2019-04-10T00:43:37.032Z,921.57
2019-04-10T00:44:35.872Z,921.55
2019-04-10T00:45:35.958Z,921.62
2019-04-10T00:46:35.845Z,921.63
2019-04-10T00:47:35.833Z,921.68
2019-04-10T00:48:36.259Z,921.66
2019-04-10T00:49:35.815Z,921.66
2019-04-10T00:50:36.928Z,921.62
2019-04-10T00:51:35.840Z,921.68
2019-04-10T00:52:36.555Z,921.68
2019-04-10T00:53:35.767Z,921.68
2019-04-10T00:54:35.762Z,921.68
2019-04-10T00:55:35.758Z,921.65
2019-04-10T00:56:36.623Z,921.68
2019-04-10T00:57:35.878Z,921.64
2019-04-10T00:58:35.717Z,921.63
2019-04-10T00:59:36.583Z,921.63
2019-04-10T01:00:36.771Z,921.62
2019-04-10T01:01:36.301Z,921.64
2019-04-10T01:02:36.583Z,921.66
2019-04-10T01:03:35.848Z,921.66
2019-04-10T01:04:36.179Z,921.68
2019-04-10T01:05:35.641Z,921.67
2019-04-10T01:06:35.779Z,921.68
2019-04-10T01:07:39.782Z,921.68
2019-04-10T01:09:01.382Z,921.71
2019-04-10T01:10:00.461Z,921.75
2019-04-10T01:11:01.051Z,921.78
2019-04-10T01:12:00.444Z,921.83
2019-04-10T01:13:00.694Z,921.87
2019-04-10T01:14:01.238Z,921.90
2019-04-10T01:15:00.411Z,921.88
2019-04-10T01:16:00.763Z,921.91
2019-04-10T01:17:00.384Z,921.92
2019-04-10T01:18:00.377Z,921.98
2019-04-10T01:19:00.368Z,921.95
2019-04-10T01:20:00.664Z,921.99
2019-04-10T01:21:00.343Z,922.03
2019-04-10T01:22:01.034Z,922.03
2019-04-10T01:23:00.517Z,922.02
2019-04-10T01:24:01.372Z,922.05
2019-04-10T01:25:00.316Z,922.06
2019-04-10T01:26:01.034Z,922.11
2019-04-10T01:27:01.232Z,922.10
2019-04-10T01:28:00.554Z,922.08
2019-04-10T01:29:00.907Z,922.12
2019-04-10T01:30:00.244Z,922.11
2019-04-10T01:31:00.239Z,922.13
2019-04-10T01:32:01.398Z,922.11
2019-04-10T01:33:00.686Z,922.11
2019-04-10T01:34:01.043Z,922.10
2019-04-10T01:35:00.294Z,922.11
2019-04-10T01:36:00.179Z,922.13
2019-04-10T01:37:00.604Z,922.09
2019-04-10T01:38:01.462Z,922.07
2019-04-10T01:39:00.150Z,922.04
2019-04-10T01:40:00.151Z,922.07
2019-04-10T01:41:00.133Z,922.08
2019-04-10T01:42:00.594Z,922.05
2019-04-10T01:43:09.262Z,922.08
2019-04-10T01:44:01.503Z,922.07
2019-04-10T01:45:00.742Z,922.06
2019-04-10T01:46:00.093Z,922.04
2019-04-10T01:47:00.060Z,922.07
2019-04-10T01:48:00.051Z,922.03
2019-04-10T01:49:00.035Z,922.08
2019-04-10T01:50:00.182Z,922.04
2019-04-10T01:51:01.108Z,922.07
2019-04-10T01:52:00.008Z,922.11
2019-04-10T01:52:59.996Z,922.05
2019-04-10T01:54:00.589Z,922.04
2019-04-10T01:54:59.975Z,922.09
2019-04-10T01:56:00.062Z,922.05
2019-04-10T01:56:59.951Z,922.04
2019-04-10T01:58:00.895Z,922.04
2019-04-10T01:58:59.930Z,922.10
2019-04-10T02:00:00.480Z,922.08
2019-04-10T02:00:59.909Z,922.08
2019-04-10T02:02:00.900Z,922.03
2019-04-10T02:02:59.889Z,922.13
2019-04-10T02:04:00.576Z,922.13
2019-04-10T02:05:00.645Z,922.16
2019-04-10T02:06:00.919Z,922.19
2019-04-10T02:07:00.011Z,922.20
2019-04-10T02:08:07.853Z,922.16
2019-04-10T02:09:25.645Z,922.19
2019-04-10T02:10:24.663Z,922.18
2019-04-10T02:11:24.616Z,922.16
2019-04-10T02:12:24.612Z,922.13
2019-04-10T02:13:25.464Z,922.13
2019-04-10T02:14:24.588Z,922.13
2019-04-10T02:15:24.571Z,922.10
2019-04-10T02:16:25.586Z,922.08
2019-04-10T02:17:24.552Z,922.13
2019-04-10T02:18:25.480Z,922.12
2019-04-10T02:19:24.627Z,922.16
2019-04-10T02:20:24.990Z,922.13
2019-04-10T02:21:25.472Z,922.11
2019-04-10T02:22:24.653Z,922.15
2019-04-10T02:23:24.483Z,922.07
2019-04-10T02:24:25.219Z,922.07
2019-04-10T02:25:24.614Z,922.08
2019-04-10T02:26:25.339Z,922.04
2019-04-10T02:27:24.586Z,922.09
2019-04-10T02:28:24.429Z,922.04
2019-04-10T02:29:24.421Z,922.06
2019-04-10T02:30:25.991Z,922.09
2019-04-10T02:31:26.361Z,922.16
2019-04-10T02:32:25.995Z,922.21
2019-04-10T02:33:25.447Z,922.20
2019-04-10T02:34:25.061Z,922.30
2019-04-10T02:35:24.761Z,922.28
2019-04-10T02:36:26.858Z,922.30
2019-04-10T02:37:25.031Z,922.33
2019-04-10T02:38:40.046Z,922.32
2019-04-10T02:39:32.428Z,922.27
2019-04-10T02:40:50.036Z,922.30
2019-04-10T02:41:49.959Z,922.26
2019-04-10T02:42:49.405Z,922.27
2019-04-10T02:43:49.194Z,922.30
2019-04-10T02:44:50.358Z,922.29
2019-04-10T02:45:49.444Z,922.26
2019-04-10T02:46:49.816Z,922.27
2019-04-10T02:47:50.805Z,922.27
2019-04-10T02:48:50.053Z,922.26
2019-04-10T02:49:49.322Z,922.35
2019-04-10T02:50:49.359Z,922.34
2019-04-10T02:51:49.842Z,922.33
2019-04-10T02:52:50.867Z,922.31
2019-04-10T02:53:50.190Z,922.31
2019-04-10T02:54:49.136Z,922.27
2019-04-10T02:55:49.358Z,922.26
2019-04-10T02:56:49.632Z,922.24
2019-04-10T02:57:49.832Z,922.29
2019-04-10T02:58:49.288Z,922.21
2019-04-10T02:59:48.984Z,922.27
2019-04-10T03:00:51.866Z,922.23
2019-04-10T03:01:49.728Z,922.24
2019-04-10T03:02:50.187Z,922.24
2019-04-10T03:03:50.247Z,922.30
2019-04-10T03:04:49.172Z,922.29
2019-04-10T03:05:48.990Z,922.28
2019-04-10T03:06:48.845Z,922.24
2019-04-10T03:07:50.092Z,922.25
2019-04-10T03:09:02.200Z,922.26
2019-04-10T03:10:24.420Z,922.31
2019-04-10T03:11:39.666Z,922.30
2019-04-10T03:12:38.755Z,922.39
2019-04-10T03:13:38.690Z,922.30
2019-04-10T03:14:39.238Z,922.36
2019-04-10T03:15:39.200Z,922.42
2019-04-10T03:16:39.373Z,922.42
2019-04-10T03:17:38.407Z,922.40
2019-04-10T03:18:39.090Z,922.43
2019-04-10T03:19:38.387Z,922.40
2019-04-10T03:20:38.536Z,922.38
2019-04-10T03:21:39.483Z,922.41
2019-04-10T03:22:38.504Z,922.46
2019-04-10T03:23:38.344Z,922.46
2019-04-10T03:24:38.328Z,922.45
2019-04-10T03:25:39.214Z,922.45
2019-04-10T03:26:39.483Z,922.46
2019-04-10T03:27:38.670Z,922.47
2019-04-10T03:28:38.903Z,922.49
2019-04-10T03:29:38.281Z,922.48
2019-04-10T03:30:39.503Z,922.54
2019-04-10T03:31:39.121Z,922.55
2019-04-10T03:32:41.716Z,922.56
2019-04-10T03:34:05.848Z,922.63
2019-04-10T03:35:03.095Z,922.62
2019-04-10T03:36:03.229Z,922.64
2019-04-10T03:37:04.285Z,922.60
2019-04-10T03:38:03.060Z,922.58
2019-04-10T03:39:06.171Z,922.62
2019-04-10T03:40:03.045Z,922.59
2019-04-10T03:41:04.015Z,922.60
2019-04-10T03:42:03.021Z,922.60
2019-04-10T03:43:03.547Z,922.60
2019-04-10T03:44:03.046Z,922.62
2019-04-10T03:45:03.326Z,922.60
2019-04-10T03:46:03.330Z,922.61
2019-04-10T03:47:02.997Z,922.60
2019-04-10T03:48:04.763Z,922.58
2019-04-10T03:49:03.236Z,922.59
2019-04-10T03:50:02.935Z,922.57
2019-04-10T03:51:03.922Z,922.54
2019-04-10T03:52:03.161Z,922.54
2019-04-10T03:53:02.902Z,922.55
2019-04-10T03:54:02.894Z,922.53
2019-04-10T03:55:03.032Z,922.56
2019-04-10T03:56:02.876Z,922.53
2019-04-10T03:57:02.862Z,922.52
2019-04-10T03:58:02.901Z,922.50
2019-04-10T03:59:02.839Z,922.49
2019-04-10T04:00:03.667Z,922.48
2019-04-10T04:01:02.889Z,922.42
2019-04-10T04:02:03.163Z,922.43
2019-04-10T04:03:02.796Z,922.35
2019-04-10T04:04:02.789Z,922.32
2019-04-10T04:05:02.780Z,922.26
2019-04-10T04:06:03.587Z,922.27
2019-04-10T04:07:02.816Z,922.25
2019-04-10T04:08:04.075Z,922.24
2019-04-10T04:09:07.768Z,922.24
2019-04-10T04:10:28.711Z,922.28
2019-04-10T04:11:27.528Z,922.28
2019-04-10T04:12:28.718Z,922.30
2019-04-10T04:13:27.898Z,922.33
2019-04-10T04:14:28.475Z,922.30
2019-04-10T04:15:28.185Z,922.33
2019-04-10T04:16:27.475Z,922.32
2019-04-10T04:17:28.330Z,922.33
2019-04-10T04:18:27.457Z,922.34
2019-04-10T04:19:28.250Z,922.37
2019-04-10T04:20:27.432Z,922.32
2019-04-10T04:21:27.880Z,922.30
2019-04-10T04:22:28.240Z,922.29
2019-04-10T04:23:27.760Z,922.31
2019-04-10T04:24:28.128Z,922.24
2019-04-10T04:25:27.377Z,922.30
2019-04-10T04:26:28.222Z,922.29
2019-04-10T04:27:27.357Z,922.27
2019-04-10T04:28:27.658Z,922.24
2019-04-10T04:29:27.387Z,922.18
2019-04-10T04:30:27.462Z,922.19
2019-04-10T04:31:27.316Z,922.26
2019-04-10T04:32:27.310Z,922.22
2019-04-10T04:33:27.662Z,922.20
2019-04-10T04:34:27.311Z,922.23
2019-04-10T04:35:27.748Z,922.21
2019-04-10T04:36:27.261Z,922.23
2019-04-10T04:37:28.042Z,922.26
2019-04-10T04:38:27.684Z,922.23
2019-04-10T04:39:28.937Z,922.26
2019-04-10T04:40:27.893Z,922.25
2019-04-10T04:41:27.413Z,922.23
2019-04-10T04:42:27.198Z,922.23
2019-04-10T04:43:27.186Z,922.24
2019-04-10T04:44:27.174Z,922.27
2019-04-10T04:45:27.816Z,922.26
2019-04-10T04:46:28.068Z,922.26
2019-04-10T04:47:27.197Z,922.28
2019-04-10T04:48:27.135Z,922.24
2019-04-10T04:49:28.312Z,922.27
2019-04-10T04:50:27.120Z,922.24
2019-04-10T04:51:27.323Z,922.34
2019-04-10T04:52:27.907Z,922.30
2019-04-10T04:53:27.972Z,922.26
2019-04-10T04:54:27.069Z,922.27
2019-04-10T04:55:27.053Z,922.25
2019-04-10T04:56:28.132Z,922.23
2019-04-10T04:57:27.036Z,922.24
2019-04-10T04:58:27.029Z,922.25
2019-04-10T04:59:27.885Z,922.25
2019-04-10T05:00:27.815Z,922.21
2019-04-10T05:01:27.550Z,922.24
2019-04-10T05:02:26.986Z,922.24
2019-04-10T05:03:27.068Z,922.25
2019-04-10T05:04:27.102Z,922.22
2019-04-10T05:05:27.156Z,922.21
2019-04-10T05:06:26.940Z,922.22
2019-04-10T05:07:27.105Z,922.21
2019-04-10T05:08:28.051Z,922.16
2019-04-10T05:09:33.329Z,922.12
2019-04-10T05:10:51.862Z,922.13
2019-04-10T05:11:51.700Z,922.14
2019-04-10T05:12:51.691Z,922.09
2019-04-10T05:13:51.681Z,922.05
2019-04-10T05:14:51.769Z,922.08
2019-04-10T05:15:51.658Z,922.07
2019-04-10T05:16:52.038Z,922.03
2019-04-10T05:17:51.641Z,922.02
2019-04-10T05:18:52.030Z,922.07
2019-04-10T05:19:52.312Z,922.09
2019-04-10T05:20:52.616Z,922.06
2019-04-10T05:21:51.948Z,922.04
2019-04-10T05:22:52.471Z,922.01
2019-04-10T05:23:51.574Z,922.05
2019-04-10T05:24:52.325Z,922.11
2019-04-10T05:25:51.939Z,922.03
2019-04-10T05:26:51.540Z,921.99
2019-04-10T05:27:51.530Z,921.95
2019-04-10T05:28:52.655Z,921.97
2019-04-10T05:29:51.510Z,921.95
2019-04-10T05:30:52.360Z,921.98
2019-04-10T05:31:51.485Z,921.90
2019-04-10T05:32:51.505Z,921.93
2019-04-10T05:33:51.467Z,921.96
2019-04-10T05:34:52.431Z,921.92
2019-04-10T05:35:51.446Z,921.95
2019-04-10T05:36:51.435Z,921.93
2019-04-10T05:37:51.983Z,922.01
2019-04-10T05:38:52.492Z,921.95
2019-04-10T05:39:52.607Z,921.94
2019-04-10T05:40:51.441Z,921.93
2019-04-10T05:41:51.383Z,921.93
2019-04-10T05:42:51.372Z,921.88
2019-04-10T05:43:51.361Z,921.84
2019-04-10T05:44:52.295Z,921.88
2019-04-10T05:45:51.337Z,921.81
2019-04-10T05:46:52.621Z,921.79
2019-04-10T05:47:51.320Z,921.80
2019-04-10T05:48:52.458Z,921.80
2019-04-10T05:49:51.313Z,921.77
2019-04-10T05:50:57.866Z,921.73
2019-04-10T05:51:53.454Z,921.71
2019-04-10T05:52:51.815Z,921.68
2019-04-10T05:53:53.695Z,921.65
2019-04-10T05:54:51.614Z,921.60
2019-04-10T05:55:51.666Z,921.58
2019-04-10T05:56:51.226Z,921.54
2019-04-10T05:57:51.261Z,921.53
2019-04-10T05:58:51.203Z,921.54
2019-04-10T05:59:52.257Z,921.56
2019-04-10T06:00:51.480Z,921.53
2019-04-10T06:01:51.165Z,921.55
2019-04-10T06:02:52.190Z,921.66
2019-04-10T06:03:51.145Z,921.69
2019-04-10T06:04:51.797Z,921.67
2019-04-10T06:05:51.124Z,921.67
2019-04-10T06:06:51.113Z,921.69
2019-04-10T06:07:51.665Z,921.64
2019-04-10T06:08:51.201Z,921.59
2019-04-10T06:09:56.821Z,921.54
2019-04-10T06:11:17.039Z,921.54
2019-04-10T06:12:16.051Z,921.51
2019-04-10T06:13:15.857Z,921.47
2019-04-10T06:14:15.914Z,921.44
2019-04-10T06:15:16.912Z,921.46
2019-04-10T06:16:15.828Z,921.42
2019-04-10T06:17:16.436Z,921.37
2019-04-10T06:18:15.801Z,921.38
2019-04-10T06:19:15.914Z,921.41
2019-04-10T06:20:15.956Z,921.40
2019-04-10T06:21:15.781Z,921.40
2019-04-10T06:22:16.697Z,921.36
2019-04-10T06:23:15.753Z,921.33
2019-04-10T06:24:16.227Z,921.35
2019-04-10T06:25:16.446Z,921.32
2019-04-10T06:26:16.841Z,921.36
2019-04-10T06:27:16.392Z,921.31
2019-04-10T06:28:15.699Z,921.32
2019-04-10T06:29:16.966Z,921.30
2019-04-10T06:30:15.776Z,921.29
2019-04-10T06:31:16.588Z,921.20
2019-04-10T06:32:15.654Z,921.19
2019-04-10T06:33:15.851Z,921.17
2019-04-10T06:34:17.570Z,921.20
2019-04-10T06:35:15.708Z,921.19
2019-04-10T06:36:15.761Z,921.14
2019-04-10T06:37:15.775Z,921.15
2019-04-10T06:38:16.793Z,921.11
2019-04-10T06:39:16.451Z,921.05
2019-04-10T06:40:19.745Z,921.05
2019-04-10T06:41:41.094Z,921.05
2019-04-10T06:42:49.204Z,921.00
2019-04-10T06:44:05.777Z,920.94
2019-04-10T06:45:05.738Z,920.88
2019-04-10T06:46:06.308Z,920.92
2019-04-10T06:47:06.329Z,920.91
2019-04-10T06:48:05.167Z,920.95
2019-04-10T06:49:05.633Z,920.91
2019-04-10T06:50:05.147Z,920.92
2019-04-10T06:51:06.122Z,920.92
2019-04-10T06:52:06.074Z,920.94
2019-04-10T06:53:06.276Z,920.92
2019-04-10T06:54:09.374Z,920.95
2019-04-10T06:55:06.190Z,920.94
2019-04-10T06:56:05.080Z,920.87
2019-04-10T06:57:06.241Z,920.92
2019-04-10T06:58:05.063Z,920.90
2019-04-10T06:59:05.171Z,920.84
2019-04-10T07:00:05.036Z,920.83
2019-04-10T07:01:06.212Z,920.79
2019-04-10T07:02:16.640Z,920.83
2019-04-10T07:03:06.515Z,920.73
2019-04-10T07:04:07.627Z,920.76
2019-04-10T07:05:08.553Z,920.71
2019-04-10T07:06:12.471Z,920.75
2019-04-10T07:07:42.333Z,920.74
2019-04-10T07:08:55.348Z,920.71
2019-04-10T07:09:56.203Z,920.74
2019-04-10T07:11:03.330Z,920.69
2019-04-10T07:12:20.493Z,920.74
2019-04-10T07:13:19.720Z,920.72
2019-04-10T07:14:20.403Z,920.69
2019-04-10T07:15:22.722Z,920.70
2019-04-10T07:16:20.065Z,920.70
2019-04-10T07:17:19.956Z,920.61
2019-04-10T07:18:20.652Z,920.61
2019-04-10T07:19:19.826Z,920.64
2019-04-10T07:20:20.846Z,920.58
2019-04-10T07:21:20.111Z,920.55
2019-04-10T07:22:19.345Z,920.53
2019-04-10T07:23:25.858Z,920.51
2019-04-10T07:24:44.132Z,920.45
2019-04-10T07:25:45.797Z,920.44
2019-04-10T07:26:46.602Z,920.42
2019-04-10T07:27:44.303Z,920.41
2019-04-10T07:28:45.959Z,920.43
2019-04-10T07:29:44.613Z,920.43
2019-04-10T07:30:43.966Z,920.41
2019-04-10T07:31:44.658Z,920.42
2019-04-10T07:32:47.520Z,920.40
2019-04-10T07:33:45.152Z,920.28
2019-04-10T07:34:44.517Z,920.26
2019-04-10T07:35:44.345Z,920.27
2019-04-10T07:36:45.536Z,920.29
2019-04-10T07:37:44.512Z,920.29
2019-04-10T07:38:43.884Z,920.28
2019-04-10T07:39:44.836Z,920.24
2019-04-10T07:40:44.928Z,920.28
2019-04-10T07:41:43.852Z,920.26
2019-04-10T07:42:43.845Z,920.25
2019-04-10T07:43:44.779Z,920.24
2019-04-10T07:44:43.823Z,920.28
2019-04-10T07:45:43.855Z,920.24
2019-04-10T07:46:43.799Z,920.26
2019-04-10T07:47:44.075Z,920.26
2019-04-10T07:48:43.780Z,920.27
2019-04-10T07:49:44.071Z,920.23
2019-04-10T07:50:45.575Z,920.24
2019-04-10T07:51:44.631Z,920.21
2019-04-10T07:52:43.779Z,920.21
2019-04-10T07:53:43.724Z,920.23
2019-04-10T07:54:44.933Z,920.24
2019-04-10T07:55:57.472Z,920.25
2019-04-10T07:57:08.559Z,920.19
2019-04-10T07:58:08.552Z,920.17
2019-04-10T07:59:08.814Z,920.22
2019-04-10T08:00:09.001Z,920.12
2019-04-10T08:01:08.517Z,920.11
2019-04-10T08:02:10.108Z,920.05
2019-04-10T08:03:08.506Z,920.08
2019-04-10T08:04:08.490Z,920.08
2019-04-10T08:05:08.479Z,920.09
2019-04-10T08:06:09.037Z,920.12
2019-04-10T08:07:09.488Z,920.09
2019-04-10T08:08:08.743Z,920.13
2019-04-10T08:09:08.468Z,920.10
2019-04-10T08:10:08.423Z,920.09
2019-04-10T08:11:09.141Z,920.07
2019-04-10T08:12:09.272Z,920.02
2019-04-10T08:13:08.634Z,920.00
2019-04-10T08:14:08.831Z,919.94
2019-04-10T08:15:09.140Z,919.90
2019-04-10T08:16:08.360Z,919.90
2019-04-10T08:17:08.348Z,919.90
2019-04-10T08:18:08.343Z,919.86
2019-04-10T08:19:08.358Z,919.92
2019-04-10T08:20:08.375Z,919.90
2019-04-10T08:21:08.312Z,919.90
2019-04-10T08:22:08.367Z,919.93
2019-04-10T08:23:09.002Z,919.92
2019-04-10T08:24:09.421Z,919.98
2019-04-10T08:25:08.930Z,919.94
2019-04-10T08:26:08.308Z,919.97
2019-04-10T08:27:10.232Z,919.98
2019-04-10T08:28:09.211Z,920.01
2019-04-10T08:29:08.227Z,920.00
2019-04-10T08:30:10.776Z,919.99
2019-04-10T08:31:08.655Z,920.01
2019-04-10T08:32:08.199Z,919.97
2019-04-10T08:33:08.187Z,919.93
2019-04-10T08:34:08.875Z,919.91
2019-04-10T08:35:09.077Z,919.89
2019-04-10T08:36:08.153Z,919.88
2019-04-10T08:37:08.250Z,919.84
2019-04-10T08:38:08.133Z,919.84
2019-04-10T08:39:08.120Z,919.83
2019-04-10T08:40:09.481Z,919.79
2019-04-10T08:41:08.673Z,919.81
2019-04-10T08:42:08.584Z,919.81
2019-04-10T08:43:08.386Z,919.78
2019-04-10T08:44:08.073Z,919.80
2019-04-10T08:45:09.095Z,919.76
2019-04-10T08:46:08.738Z,919.77
2019-04-10T08:47:08.941Z,919.70
2019-04-10T08:48:08.084Z,919.70
2019-04-10T08:49:08.167Z,919.70
2019-04-10T08:50:08.006Z,919.66
2019-04-10T08:51:08.672Z,919.66
2019-04-10T08:52:08.296Z,919.63
2019-04-10T08:53:07.971Z,919.63
2019-04-10T08:54:08.005Z,919.60
2019-04-10T08:55:08.038Z,919.61
2019-04-10T08:56:07.943Z,919.61
2019-04-10T08:57:07.935Z,919.56
2019-04-10T08:58:08.339Z,919.57
2019-04-10T08:59:07.915Z,919.63
2019-04-10T09:00:08.214Z,919.56
2019-04-10T09:01:09.081Z,919.59
2019-04-10T09:02:07.883Z,919.56
2019-04-10T09:03:08.790Z,919.59
2019-04-10T09:04:07.906Z,919.64
2019-04-10T09:05:09.072Z,919.63
2019-04-10T09:06:07.841Z,919.61
2019-04-10T09:07:08.273Z,919.61
2019-04-10T09:08:08.593Z,919.65
2019-04-10T09:09:07.810Z,919.64
2019-04-10T09:10:07.807Z,919.64
2019-04-10T09:11:07.794Z,919.67
2019-04-10T09:13:08.369Z,919.57
2019-04-10T09:14:08.645Z,919.57
2019-04-10T09:15:07.907Z,919.50
2019-04-10T09:16:07.733Z,919.50
2019-04-10T09:17:07.721Z,919.54
2019-04-10T09:18:08.550Z,919.49
2019-04-10T09:19:07.703Z,919.47
2019-04-10T09:20:08.774Z,919.43
2019-04-10T09:21:07.679Z,919.40
2019-04-10T09:22:07.919Z,919.40
2019-04-10T09:23:18.774Z,919.38
2019-04-10T09:24:32.615Z,919.36
2019-04-10T09:25:33.394Z,919.31
2019-04-10T09:26:32.800Z,919.38
2019-04-10T09:27:33.667Z,919.37
2019-04-10T09:28:32.806Z,919.38
2019-04-10T09:29:32.664Z,919.39
2019-04-10T09:30:33.848Z,919.34
2019-04-10T09:31:33.510Z,919.34
2019-04-10T09:32:32.702Z,919.37
2019-04-10T09:33:32.566Z,919.34
2019-04-10T09:34:32.512Z,919.33
2019-04-10T09:35:32.883Z,919.34
2019-04-10T09:36:33.310Z,919.32
2019-04-10T09:37:32.619Z,919.30
2019-04-10T09:38:32.470Z,919.34
2019-04-10T09:39:32.457Z,919.33
2019-04-10T09:40:32.442Z,919.21
2019-04-10T09:41:32.492Z,919.23
2019-04-10T09:42:33.263Z,919.19
2019-04-10T09:43:32.420Z,919.13
2019-04-10T09:44:32.404Z,919.08
2019-04-10T09:45:32.395Z,919.08
2019-04-10T09:46:33.219Z,919.06
2019-04-10T09:47:32.569Z,919.05
2019-04-10T09:48:32.360Z,919.07
2019-04-10T09:49:38.948Z,919.04
2019-04-10T09:50:33.440Z,919.01
2019-04-10T09:51:32.332Z,919.05
2019-04-10T09:52:32.375Z,919.03
2019-04-10T09:53:32.970Z,919.04
2019-04-10T09:54:32.969Z,919.04
2019-04-10T09:55:32.295Z,919.05
2019-04-10T09:56:32.278Z,919.08
2019-04-10T09:57:32.288Z,919.09
2019-04-10T09:58:32.308Z,919.04
2019-04-10T09:59:36.429Z,919.04
2019-04-10T10:00:57.054Z,919.05
2019-04-10T10:01:57.046Z,919.00
2019-04-10T10:02:57.206Z,918.97
2019-04-10T10:03:57.180Z,918.98
2019-04-10T10:04:57.818Z,918.93
2019-04-10T10:05:57.171Z,918.92
2019-04-10T10:06:56.991Z,918.94
2019-04-10T10:07:57.973Z,919.03
2019-04-10T10:08:56.967Z,919.07
2019-04-10T10:09:59.704Z,919.11
2019-04-10T10:10:57.635Z,919.22
2019-04-10T10:11:56.937Z,919.13
2019-04-10T10:12:56.980Z,919.09
2019-04-10T10:13:56.914Z,919.07
2019-04-10T10:14:56.999Z,919.08
2019-04-10T10:15:56.953Z,919.03
2019-04-10T10:16:57.982Z,918.98
2019-04-10T10:17:57.142Z,919.00
2019-04-10T10:18:57.415Z,919.00
2019-04-10T10:19:57.481Z,919.01
2019-04-10T10:20:56.845Z,919.01
2019-04-10T10:21:59.066Z,919.03
2019-04-10T10:22:57.769Z,919.04
2019-04-10T10:23:56.816Z,919.05
2019-04-10T10:24:57.805Z,919.00
2019-04-10T10:25:56.794Z,919.01
2019-04-10T10:26:57.739Z,919.00
2019-04-10T10:27:56.867Z,918.99
2019-04-10T10:28:56.758Z,919.03
2019-04-10T10:29:57.845Z,919.04
2019-04-10T10:30:57.816Z,919.01
2019-04-10T10:31:56.983Z,919.02
2019-04-10T10:32:57.257Z,919.08
2019-04-10T10:33:56.812Z,919.07
2019-04-10T10:34:56.694Z,919.07
2019-04-10T10:35:57.668Z,919.11
2019-04-10T10:36:56.673Z,919.09
2019-04-10T10:37:56.905Z,919.07
2019-04-10T10:39:05.208Z,919.07
2019-04-10T10:40:21.610Z,919.07
2019-04-10T10:41:22.253Z,919.00
2019-04-10T10:42:21.583Z,919.03
2019-04-10T10:43:22.563Z,919.01
2019-04-10T10:44:21.868Z,919.00
2019-04-10T10:45:22.773Z,919.03
2019-04-10T10:46:21.544Z,919.04
2019-04-10T10:47:22.267Z,919.01
2019-04-10T10:48:21.944Z,918.99
2019-04-10T10:49:21.506Z,918.99
2019-04-10T10:50:22.242Z,918.94
2019-04-10T10:51:22.567Z,918.98
2019-04-10T10:52:21.592Z,919.01
2019-04-10T10:53:21.934Z,918.98
2019-04-10T10:54:21.455Z,918.94
2019-04-10T10:55:21.447Z,918.99
2019-04-10T10:56:22.398Z,919.04
2019-04-10T10:57:22.688Z,918.96
2019-04-10T10:58:21.829Z,918.98
2019-04-10T10:59:21.811Z,918.97
2019-04-10T11:00:21.390Z,919.01
2019-04-10T11:01:22.136Z,919.02
2019-04-10T11:02:21.464Z,918.92
2019-04-10T11:03:22.438Z,919.02
2019-04-10T11:04:21.352Z,918.97
2019-04-10T11:05:21.344Z,918.97
2019-04-10T11:06:22.585Z,918.95
2019-04-10T11:07:22.663Z,918.98
2019-04-10T11:08:22.086Z,918.98
2019-04-10T11:09:21.291Z,918.91
2019-04-10T11:10:24.434Z,918.85
2019-04-10T11:11:22.629Z,918.82
2019-04-10T11:12:21.972Z,918.84
2019-04-10T11:13:22.456Z,918.76
2019-04-10T11:14:21.535Z,918.68
2019-04-10T11:15:21.229Z,918.62
2019-04-10T11:16:21.220Z,918.60
2019-04-10T11:17:22.253Z,918.65
2019-04-10T11:18:22.236Z,918.64
2019-04-10T11:19:21.190Z,918.65
2019-04-10T11:20:21.539Z,918.65
2019-04-10T11:21:21.172Z,918.64
2019-04-10T11:22:22.995Z,918.65
2019-04-10T11:23:22.185Z,918.66
2019-04-10T11:24:21.139Z,918.69
2019-04-10T11:25:22.126Z,918.68
2019-04-10T11:26:24.016Z,918.65
2019-04-10T11:27:21.101Z,918.64
2019-04-10T11:28:22.710Z,918.68
2019-04-10T11:29:22.032Z,918.65
2019-04-10T11:30:22.185Z,918.63
2019-04-10T11:31:21.185Z,918.63
2019-04-10T11:32:22.121Z,918.66
2019-04-10T11:33:22.302Z,918.66
2019-04-10T11:34:22.581Z,918.71
2019-04-10T11:35:21.803Z,918.73
2019-04-10T11:36:21.010Z,918.69
2019-04-10T11:37:32.136Z,918.58
2019-04-10T11:38:46.591Z,918.61
2019-04-10T11:39:48.124Z,918.51
2019-04-10T11:40:47.258Z,918.49
2019-04-10T11:41:48.749Z,918.46
2019-04-10T11:42:46.994Z,918.42
2019-04-10T11:43:46.625Z,918.39
2019-04-10T11:44:47.302Z,918.43
2019-04-10T11:45:52.028Z,918.49
2019-04-10T11:47:10.681Z,918.59
2019-04-10T11:48:12.697Z,918.59
2019-04-10T11:49:13.951Z,918.53
2019-04-10T11:50:14.070Z,918.63
2019-04-10T11:51:36.721Z,918.55
2019-04-10T11:52:40.202Z,918.52
2019-04-10T11:54:02.210Z,918.60
2019-04-10T11:56:05.273Z,918.60
2019-04-10T11:57:04.240Z,918.58
2019-04-10T11:58:03.016Z,918.57
2019-04-10T11:59:01.650Z,918.57
2019-04-10T12:00:02.517Z,918.54
2019-04-10T12:01:02.513Z,918.57
2019-04-10T12:02:03.472Z,918.54
2019-04-10T12:03:26.993Z,918.53
2019-04-10T12:04:25.599Z,918.58
2019-04-10T12:05:25.864Z,918.53
2019-04-10T12:06:25.517Z,918.56
2019-04-10T12:07:55.117Z,918.56
2019-04-10T12:08:50.103Z,918.56
2019-04-10T12:10:49.504Z,918.54
2019-04-10T12:11:49.696Z,918.56
2019-04-10T12:12:49.957Z,918.54
2019-04-10T12:13:50.477Z,918.58
2019-04-10T12:14:50.079Z,918.54
2019-04-10T12:15:50.460Z,918.59
2019-04-10T12:16:49.652Z,918.63
2019-04-10T12:17:49.837Z,918.64
2019-04-10T12:18:49.628Z,918.61
2019-04-10T12:19:49.619Z,918.62
2019-04-10T12:20:49.614Z,918.59
2019-04-10T12:21:50.373Z,918.62
2019-04-10T12:22:49.582Z,918.60
2019-04-10T12:23:50.230Z,918.62
2019-04-10T12:24:50.076Z,918.63
2019-04-10T12:25:49.555Z,918.60
2019-04-10T12:26:49.885Z,918.57
2019-04-10T12:27:49.583Z,918.59
2019-04-10T12:28:50.027Z,918.58
2019-04-10T12:29:49.514Z,918.60
2019-04-10T12:30:49.499Z,918.59
2019-04-10T12:31:50.306Z,918.60
2019-04-10T12:32:49.501Z,918.59
2019-04-10T12:33:50.518Z,918.66
2019-04-10T12:34:49.463Z,918.63
2019-04-10T12:35:49.977Z,918.66
2019-04-10T12:36:49.442Z,918.57
2019-04-10T12:37:57.841Z,918.58
2019-04-10T12:39:14.334Z,918.56
2019-04-10T12:40:14.335Z,918.52
2019-04-10T12:41:15.118Z,918.53
2019-04-10T12:42:14.299Z,918.58
2019-04-10T12:43:14.293Z,918.55
2019-04-10T12:44:14.379Z,918.53
2019-04-10T12:45:14.273Z,918.53
2019-04-10T12:46:14.947Z,918.58
2019-04-10T12:47:15.398Z,918.51
2019-04-10T12:48:14.548Z,918.51
2019-04-10T12:49:15.072Z,918.51